Time;durP1;ratioP1;P1;durP2;ratioP2;P2;SDS_P1;SDS_P2;PMS_P1;PMS_P2;Temp;Humidity;BMP_temperature;BMP_pressure;BME280_temperature;BME280_humidity;BME280_pressure;Samples;Min_cycle;Max_cycle;Signal;HPM_P1;HPM_P2
2022/05/12 00:01:33;;;;;;;20.40;17.52;;;15.10;99.90;;;;;;4982768;28;20050;-74
2022/05/12 00:04:00;;;;;;;23.23;17.77;;;15.10;99.90;;;;;;4948834;28;20059;-74
2022/05/12 00:06:27;;;;;;;19.98;17.95;;;15.20;99.90;;;;;;4964896;28;20074;-74
2022/05/12 00:08:54;;;;;;;20.45;18.30;;;15.10;99.90;;;;;;4999903;28;20456;-74
2022/05/12 00:11:21;;;;;;;20.48;18.10;;;15.10;99.90;;;;;;4988431;28;20184;-75
2022/05/12 00:13:47;;;;;;;22.42;18.23;;;15.10;99.90;;;;;;5001613;28;20045;-74
2022/05/12 00:16:14;;;;;;;22.50;17.77;;;15.10;99.90;;;;;;4987833;28;20053;-75
2022/05/12 00:18:41;;;;;;;20.17;17.30;;;15.00;99.90;;;;;;4984472;28;20396;-76
2022/05/12 00:21:08;;;;;;;16.60;13.90;;;14.70;99.90;;;;;;4983546;28;20042;-78
2022/05/12 00:23:35;;;;;;;18.83;12.77;;;14.60;99.90;;;;;;4966638;28;20058;-78
2022/05/12 00:26:01;;;;;;;20.50;12.05;;;14.30;99.90;;;;;;4969526;28;20046;-77
2022/05/12 00:28:28;;;;;;;23.17;13.45;;;14.10;99.90;;;;;;4984525;28;20050;-77
2022/05/12 00:30:58;;;;;;;20.13;11.15;;;14.00;99.90;;;;;;4977359;28;20050;-78
2022/05/12 00:33:27;;;;;;;18.30;10.80;;;13.90;99.90;;;;;;4989258;28;20136;-77
2022/05/12 00:35:56;;;;;;;17.92;11.60;;;13.80;99.90;;;;;;4988156;28;20334;-77
2022/05/12 00:38:23;;;;;;;23.85;12.40;;;13.50;99.90;;;;;;4984904;28;20631;-76
2022/05/12 00:40:50;;;;;;;20.05;12.43;;;13.40;99.90;;;;;;4982177;28;20055;-77
2022/05/12 00:43:36;;;;;;;22.23;12.68;;;13.40;99.90;;;;;;4986554;28;20054;-77
2022/05/12 00:46:04;;;;;;;17.90;12.93;;;13.40;99.90;;;;;;4996295;28;20432;-78
2022/05/12 00:48:31;;;;;;;26.75;13.43;;;13.20;99.90;;;;;;4980161;28;20096;-77
2022/05/12 00:51:00;;;;;;;25.45;13.77;;;13.30;99.90;;;;;;4967244;28;20054;-78
2022/05/12 00:53:30;;;;;;;24.05;13.27;;;13.30;99.90;;;;;;4963588;28;20062;-77
2022/05/12 00:55:58;;;;;;;18.40;13.10;;;13.20;99.90;;;;;;4978740;28;20066;-78
2022/05/12 00:58:26;;;;;;;21.08;13.80;;;13.10;99.90;;;;;;4947168;28;20263;-78
2022/05/12 01:00:54;;;;;;;18.20;11.95;;;13.10;99.90;;;;;;4990890;28;20053;-77
2022/05/12 01:03:24;;;;;;;32.65;15.27;;;13.10;99.90;;;;;;4998844;28;20483;-77
2022/05/12 01:05:52;;;;;;;23.55;13.75;;;13.10;99.90;;;;;;4963781;28;20082;-77
2022/05/12 01:08:20;;;;;;;26.98;14.52;;;13.10;99.90;;;;;;4964962;28;20066;-77
2022/05/12 01:11:00;;;;;;;25.60;14.57;;;13.10;99.90;;;;;;4963600;28;20054;-77
2022/05/12 01:13:28;;;;;;;21.73;13.93;;;13.10;99.90;;;;;;4992350;28;20053;-77
2022/05/12 01:15:58;;;;;;;32.78;14.52;;;13.00;99.90;;;;;;4994005;28;20562;-77
2022/05/12 01:18:27;;;;;;;21.13;13.82;;;13.10;99.90;;;;;;4985799;28;20149;-77
2022/05/12 01:20:54;;;;;;;23.52;15.40;;;13.00;99.90;;;;;;5001167;28;20511;-78
2022/05/12 01:23:25;;;;;;;27.65;14.50;;;13.00;99.90;;;;;;5000085;28;20108;-78
2022/05/12 01:26:01;;;;;;;27.25;15.43;;;13.00;99.90;;;;;;4967572;28;20105;-77
2022/05/12 01:28:29;;;;;;;24.20;16.05;;;13.10;99.90;;;;;;4982581;28;20057;-78
2022/05/12 01:30:57;;;;;;;32.00;17.08;;;13.00;99.90;;;;;;4974878;28;20049;-77
2022/05/12 01:33:24;;;;;;;26.73;16.77;;;13.00;99.90;;;;;;4982299;28;20338;-77
2022/05/12 01:35:51;;;;;;;25.65;14.35;;;12.90;99.90;;;;;;4989017;28;20495;-78
2022/05/12 01:38:18;;;;;;;29.70;17.20;;;13.00;99.90;;;;;;4965721;28;20058;-77
2022/05/12 01:40:46;;;;;;;23.60;16.65;;;13.00;99.90;;;;;;4981345;28;20482;-77
2022/05/12 01:43:14;;;;;;;24.08;15.23;;;13.00;99.90;;;;;;4978882;28;20304;-78
2022/05/12 01:45:41;;;;;;;26.88;15.48;;;12.90;99.90;;;;;;4982176;28;20051;-77
2022/05/12 01:48:11;;;;;;;23.02;15.40;;;13.00;99.90;;;;;;4963765;28;20074;-78
2022/05/12 01:50:40;;;;;;;27.33;15.77;;;12.90;99.90;;;;;;4974399;28;20072;-78
2022/05/12 01:53:09;;;;;;;23.15;15.95;;;12.90;99.90;;;;;;4985227;28;20104;-77
2022/05/12 01:55:37;;;;;;;19.40;13.80;;;12.90;99.90;;;;;;4978500;28;20050;-77
2022/05/12 01:58:04;;;;;;;29.77;14.32;;;12.90;99.90;;;;;;4964492;28;20106;-77
2022/05/12 02:00:32;;;;;;;20.70;13.73;;;12.80;99.90;;;;;;4987539;28;20124;-77
2022/05/12 02:03:01;;;;;;;21.33;13.10;;;12.80;99.90;;;;;;4983011;28;20566;-78
2022/05/12 02:05:33;;;;;;;19.95;12.77;;;12.80;99.90;;;;;;4997789;28;20070;-77
2022/05/12 02:08:00;;;;;;;29.50;13.27;;;12.70;99.90;;;;;;4964995;28;20081;-77
2022/05/12 02:10:30;;;;;;;21.98;12.10;;;12.70;99.90;;;;;;4964992;28;20046;-77
2022/05/12 02:12:57;;;;;;;25.77;12.65;;;12.70;99.90;;;;;;4976289;28;20127;-76
2022/05/12 02:15:24;;;;;;;18.15;11.88;;;12.60;99.90;;;;;;5001388;28;20103;-78
2022/05/12 02:17:51;;;;;;;14.90;11.02;;;12.60;99.90;;;;;;4989924;28;20046;-77
2022/05/12 02:20:21;;;;;;;15.50;9.52;;;12.50;99.90;;;;;;4985373;28;20042;-77
2022/05/12 02:22:48;;;;;;;13.45;9.68;;;12.50;99.90;;;;;;4985880;28;20051;-77
2022/05/12 02:25:16;;;;;;;13.68;9.25;;;12.40;99.90;;;;;;4984923;28;20436;-77
2022/05/12 02:27:45;;;;;;;19.42;10.32;;;12.40;99.90;;;;;;4967969;28;20054;-77
2022/05/12 02:30:23;;;;;;;14.52;9.10;;;12.40;99.90;;;;;;4975426;28;20042;-76
2022/05/12 02:32:50;;;;;;;16.05;11.15;;;12.40;99.90;;;;;;4991047;28;20112;-77
2022/05/12 02:35:17;;;;;;;15.18;9.68;;;12.30;99.90;;;;;;4990052;28;20105;-77
2022/05/12 02:37:44;;;;;;;14.43;9.50;;;12.30;99.90;;;;;;4985488;28;20496;-77
2022/05/12 02:40:14;;;;;;;10.30;8.85;;;12.10;99.90;;;;;;4970371;28;20046;-77
2022/05/12 02:42:42;;;;;;;13.65;10.00;;;12.10;99.90;;;;;;4973908;28;20180;-76
2022/05/12 02:45:09;;;;;;;14.88;9.10;;;12.00;99.90;;;;;;5001915;28;20485;-76
2022/05/12 02:47:37;;;;;;;13.82;9.00;;;12.00;99.90;;;;;;5021285;23;20131;-72
2022/05/12 02:50:05;;;;;;;11.15;8.70;;;12.00;99.90;;;;;;5017884;28;20490;-74
2022/05/12 02:52:32;;;;;;;14.75;10.48;;;11.90;99.90;;;;;;4983633;28;20165;-73
2022/05/12 02:55:00;;;;;;;13.32;9.07;;;11.90;99.90;;;;;;5019466;28;20106;-72
2022/05/12 02:57:26;;;;;;;11.90;9.55;;;11.90;99.90;;;;;;5020770;28;20166;-71
2022/05/12 02:59:53;;;;;;;19.95;9.57;;;11.80;99.90;;;;;;5018066;28;20171;-74
2022/05/12 03:02:20;;;;;;;13.05;9.70;;;11.80;99.90;;;;;;5030613;28;20094;-72
2022/05/12 03:04:47;;;;;;;14.30;9.55;;;11.90;99.90;;;;;;5030807;28;20131;-74
2022/05/12 03:07:14;;;;;;;12.90;9.90;;;11.90;99.90;;;;;;5018357;28;20069;-74
2022/05/12 03:09:41;;;;;;;14.38;9.50;;;11.80;99.90;;;;;;4999123;28;20529;-72
2022/05/12 03:12:08;;;;;;;12.35;10.95;;;11.70;99.90;;;;;;4999924;28;20501;-72
2022/05/12 03:14:35;;;;;;;11.15;9.65;;;11.70;99.90;;;;;;5015775;28;20249;-71
2022/05/12 03:17:02;;;;;;;17.75;9.85;;;11.60;99.90;;;;;;5018859;28;20045;-75
2022/05/12 03:19:31;;;;;;;12.20;10.45;;;11.50;99.90;;;;;;4999839;28;20517;-73
2022/05/12 03:21:59;;;;;;;12.98;10.32;;;11.40;99.90;;;;;;5000439;28;20322;-75
2022/05/12 03:24:26;;;;;;;11.73;10.40;;;11.30;99.90;;;;;;4999870;28;20057;-71
2022/05/12 03:26:52;;;;;;;13.07;9.88;;;11.20;99.90;;;;;;5000659;28;20049;-73
2022/05/12 03:29:19;;;;;;;11.75;10.55;;;11.20;99.90;;;;;;5017774;28;20458;-73
2022/05/12 03:31:46;;;;;;;12.45;10.70;;;11.20;99.90;;;;;;5018006;28;20500;-71
2022/05/12 03:34:13;;;;;;;12.00;10.13;;;11.20;99.90;;;;;;5018096;28;20152;-71
2022/05/12 03:36:39;;;;;;;10.68;9.43;;;11.10;99.90;;;;;;5004717;28;20214;-72
2022/05/12 03:39:07;;;;;;;12.80;9.77;;;11.10;99.90;;;;;;4999609;28;21098;-72
2022/05/12 03:41:34;;;;;;;13.05;10.68;;;11.00;99.90;;;;;;5015309;28;20144;-73
2022/05/12 03:46:47;;;;;;;13.75;9.10;;;11.00;99.90;;;;;;5014000;28;20111;-71
2022/05/12 03:49:14;;;;;;;9.90;9.07;;;11.00;99.90;;;;;;5016919;28;20362;-72
2022/05/12 03:51:41;;;;;;;10.32;9.18;;;11.00;99.90;;;;;;5015699;28;20045;-72
2022/05/12 03:54:08;;;;;;;12.25;9.15;;;10.90;99.90;;;;;;5012612;28;20048;-74
2022/05/12 03:56:35;;;;;;;17.42;9.52;;;10.90;99.90;;;;;;4998506;28;20182;-71
2022/05/12 03:59:03;;;;;;;12.70;8.98;;;10.90;99.90;;;;;;4999090;28;20115;-75
2022/05/12 04:01:31;;;;;;;12.52;9.30;;;10.90;99.90;;;;;;4997599;28;20149;-72
2022/05/12 04:03:58;;;;;;;14.65;10.93;;;10.80;99.90;;;;;;5014677;28;20504;-71
2022/05/12 04:06:25;;;;;;;10.30;9.25;;;10.80;99.90;;;;;;4996571;28;20060;-71
2022/05/12 04:08:52;;;;;;;10.00;9.23;;;10.80;99.90;;;;;;4997169;28;20054;-70
2022/05/12 04:11:19;;;;;;;11.32;10.23;;;10.80;99.90;;;;;;5015225;28;20091;-71
2022/05/12 04:13:46;;;;;;;12.15;9.50;;;10.70;99.90;;;;;;4996070;28;20081;-71
2022/05/12 04:16:12;;;;;;;10.57;9.68;;;10.60;99.90;;;;;;5015582;28;20518;-71
2022/05/12 04:18:39;;;;;;;11.20;10.10;;;10.60;99.90;;;;;;5016230;28;20052;-70
2022/05/12 04:21:06;;;;;;;11.80;10.30;;;10.60;99.90;;;;;;4997233;28;20047;-74
2022/05/12 04:23:33;;;;;;;11.48;10.20;;;10.60;99.90;;;;;;5015045;28;20177;-72
2022/05/12 04:26:01;;;;;;;11.40;10.32;;;10.60;99.90;;;;;;5014853;28;20060;-71
2022/05/12 04:28:29;;;;;;;11.82;10.73;;;10.70;99.90;;;;;;4997597;28;20541;-73
2022/05/12 04:30:56;;;;;;;12.77;10.75;;;10.60;99.90;;;;;;4994626;28;20095;-73
2022/05/12 04:36:08;;;;;;;12.73;11.52;;;10.70;99.90;;;;;;4991029;28;20127;-71
2022/05/12 04:38:35;;;;;;;12.00;10.98;;;10.70;99.90;;;;;;5009735;28;20064;-71
2022/05/12 04:41:02;;;;;;;11.13;10.25;;;10.80;99.90;;;;;;4991168;28;20488;-71
2022/05/12 04:43:29;;;;;;;12.68;11.02;;;10.80;99.90;;;;;;4991141;28;20041;-71
2022/05/12 04:45:55;;;;;;;13.13;11.80;;;10.80;99.90;;;;;;5012124;28;20468;-71
2022/05/12 04:48:24;;;;;;;12.10;11.23;;;10.90;99.90;;;;;;4995207;28;20053;-71
2022/05/12 04:50:52;;;;;;;12.52;11.43;;;11.00;99.90;;;;;;4997366;28;20060;-71
2022/05/12 04:53:18;;;;;;;12.57;11.40;;;11.00;99.90;;;;;;5014198;28;20079;-71
2022/05/12 04:55:47;;;;;;;12.05;10.82;;;11.00;99.90;;;;;;4994875;28;20045;-71
2022/05/12 04:58:14;;;;;;;12.32;10.32;;;11.10;99.90;;;;;;4996932;28;20231;-74
2022/05/12 05:00:43;;;;;;;12.00;10.57;;;11.20;99.90;;;;;;5013336;28;20391;-74
2022/05/12 05:03:11;;;;;;;14.63;10.68;;;11.10;99.90;;;;;;5014124;28;20056;-71
2022/05/12 05:05:46;;;;;;;16.23;10.32;;;11.00;99.90;;;;;;5014826;28;20889;-71
2022/05/12 05:08:19;;;;;;;18.45;11.13;;;11.00;99.90;;;;;;5014968;28;20103;-73
2022/05/12 05:10:46;;;;;;;13.27;11.90;;;11.00;99.90;;;;;;4995134;28;20053;-71
2022/05/12 05:13:13;;;;;;;17.05;11.80;;;11.00;99.90;;;;;;4991871;28;20548;-71
2022/05/12 05:15:40;;;;;;;16.60;12.10;;;11.00;99.90;;;;;;4996750;28;20104;-72
2022/05/12 05:18:12;;;;;;;12.85;11.82;;;11.10;99.90;;;;;;4997213;28;20388;-72
2022/05/12 05:20:39;;;;;;;13.95;11.82;;;11.10;99.90;;;;;;4996609;28;20476;-75
2022/05/12 05:23:06;;;;;;;14.65;11.93;;;11.10;99.90;;;;;;4995795;28;20685;-73
2022/05/12 05:25:33;;;;;;;13.52;12.32;;;11.00;99.90;;;;;;5014331;28;20049;-72
2022/05/12 05:28:00;;;;;;;14.48;12.98;;;11.00;99.90;;;;;;5014713;28;20045;-72
2022/05/12 05:30:27;;;;;;;14.82;12.93;;;11.10;99.90;;;;;;5013747;28;20099;-74
2022/05/12 05:32:54;;;;;;;15.35;12.10;;;11.10;99.90;;;;;;4995094;28;20448;-73
2022/05/12 05:35:22;;;;;;;15.55;12.55;;;11.10;99.90;;;;;;5012144;28;20130;-74
2022/05/12 05:37:52;;;;;;;14.48;12.95;;;11.20;99.90;;;;;;4994607;28;20457;-75
2022/05/12 05:40:23;;;;;;;14.45;12.55;;;11.00;99.90;;;;;;4995660;28;20056;-72
2022/05/12 05:42:50;;;;;;;15.18;13.27;;;11.00;99.90;;;;;;4994494;28;20045;-72
2022/05/12 05:45:18;;;;;;;13.82;12.52;;;11.00;99.90;;;;;;4996275;28;20049;-75
2022/05/12 05:47:58;;;;;;;14.13;12.30;;;11.00;99.90;;;;;;4996851;28;20047;-75
2022/05/12 05:50:31;;;;;;;14.32;12.40;;;10.90;99.90;;;;;;5014694;28;20049;-75
2022/05/12 05:53:31;;;;;;;13.93;12.77;;;10.90;99.90;;;;;;4995993;28;20249;-72
2022/05/12 05:55:52;;;;;;;14.25;13.25;;;11.10;99.90;;;;;;4994503;28;20061;-75
2022/05/12 05:58:20;;;;;;;14.80;13.50;;;11.20;99.90;;;;;;4996613;28;20049;-72
2022/05/12 06:00:47;;;;;;;16.42;12.73;;;11.30;99.90;;;;;;4995619;28;20339;-73
2022/05/12 06:03:14;;;;;;;15.27;14.07;;;11.50;99.90;;;;;;4995377;28;20045;-72
2022/05/12 06:05:44;;;;;;;15.98;14.60;;;11.60;99.90;;;;;;5013443;28;20049;-72
2022/05/12 06:08:14;;;;;;;17.58;16.05;;;11.60;99.90;;;;;;4999565;28;20695;-73
2022/05/12 06:10:44;;;;;;;17.25;15.65;;;11.60;99.90;;;;;;5017135;28;20525;-72
2022/05/12 06:13:12;;;;;;;17.98;16.27;;;11.70;99.90;;;;;;4999255;28;20091;-73
2022/05/12 06:15:39;;;;;;;16.83;15.70;;;11.80;99.90;;;;;;4998552;28;20338;-76
2022/05/12 06:18:08;;;;;;;17.67;15.88;;;11.80;99.90;;;;;;4999984;28;20111;-74
2022/05/12 06:20:40;;;;;;;16.15;14.98;;;11.70;99.90;;;;;;4999125;28;20049;-74
2022/05/12 06:23:06;;;;;;;16.50;15.10;;;11.70;99.90;;;;;;4998050;28;20061;-73
2022/05/12 06:25:33;;;;;;;16.52;15.00;;;11.70;99.90;;;;;;5016834;28;20053;-72
2022/05/12 06:28:00;;;;;;;16.25;14.85;;;11.80;99.90;;;;;;5000097;28;20143;-72
2022/05/12 06:30:29;;;;;;;17.17;15.38;;;11.90;99.90;;;;;;5000681;28;20053;-73
2022/05/12 06:32:56;;;;;;;18.02;15.98;;;11.90;99.90;;;;;;4998529;28;20072;-73
2022/05/12 06:35:25;;;;;;;17.13;15.73;;;11.90;99.90;;;;;;5000676;28;20059;-76
2022/05/12 06:37:53;;;;;;;17.77;16.15;;;12.00;99.90;;;;;;5000572;28;20609;-73
2022/05/12 06:40:20;;;;;;;17.60;16.27;;;11.80;99.90;;;;;;5018522;28;20045;-76
2022/05/12 06:42:50;;;;;;;17.75;16.35;;;11.80;99.90;;;;;;4996857;28;20037;-71
2022/05/12 06:45:20;;;;;;;18.85;17.02;;;11.80;99.90;;;;;;4997284;28;20275;-71
2022/05/12 06:47:50;;;;;;;17.58;15.98;;;11.90;99.90;;;;;;4999957;28;20041;-71
2022/05/12 06:50:21;;;;;;;18.42;16.98;;;12.00;99.90;;;;;;5017526;28;20049;-71
2022/05/12 06:52:49;;;;;;;17.48;16.27;;;12.20;99.90;;;;;;5000004;28;20517;-73
2022/05/12 06:55:17;;;;;;;19.75;17.95;;;12.30;99.90;;;;;;4983591;28;20053;-74
2022/05/12 06:57:44;;;;;;;20.35;18.52;;;12.40;99.90;;;;;;4998655;28;20056;-75
2022/05/12 07:00:16;;;;;;;21.02;19.30;;;12.80;99.90;;;;;;5017055;28;20057;-75
2022/05/12 07:02:45;;;;;;;19.83;18.48;;;12.60;99.90;;;;;;4998776;28;20267;-75
2022/05/12 07:05:13;;;;;;;21.15;19.40;;;12.80;99.90;;;;;;4999083;28;20045;-74
2022/05/12 07:07:41;;;;;;;20.88;19.27;;;12.90;99.90;;;;;;5000560;28;20450;-73
2022/05/12 07:10:09;;;;;;;20.50;19.05;;;13.00;99.90;;;;;;4999766;28;20053;-72
2022/05/12 07:12:37;;;;;;;21.63;19.80;;;13.00;99.90;;;;;;5016795;28;20549;-73
2022/05/12 07:15:05;;;;;;;20.73;19.40;;;13.10;99.90;;;;;;5017299;28;20473;-73
2022/05/12 07:17:33;;;;;;;22.48;20.60;;;13.00;99.90;;;;;;5016600;28;20591;-74
2022/05/12 07:28:15;;;;;;;22.90;21.20;;;13.70;99.90;;;;;;5011436;28;20156;-75
2022/05/12 07:31:00;;;;;;;22.05;20.48;;;13.50;99.90;;;;;;5010861;28;20122;-75
2022/05/12 07:33:37;;;;;;;23.00;21.25;;;13.60;99.90;;;;;;5006116;28;20374;-75
2022/05/12 07:36:09;;;;;;;22.27;20.70;;;13.60;99.90;;;;;;4997628;28;20068;-75
2022/05/12 07:38:37;;;;;;;22.13;20.48;;;13.80;99.90;;;;;;4996636;28;20041;-72
2022/05/12 07:41:09;;;;;;;22.25;20.67;;;14.10;99.90;;;;;;5015453;28;20429;-76
2022/05/12 07:43:36;;;;;;;22.63;21.13;;;14.40;99.90;;;;;;5014982;28;20049;-72
2022/05/12 07:46:03;;;;;;;22.88;21.20;;;14.30;99.90;;;;;;5014648;28;20053;-72
2022/05/12 07:48:30;;;;;;;24.48;22.80;;;14.40;99.90;;;;;;5000151;28;20062;-76
2022/05/12 07:50:57;;;;;;;25.35;23.45;;;14.50;99.90;;;;;;5015474;28;20064;-74
2022/05/12 07:53:24;;;;;;;24.00;22.48;;;14.10;99.90;;;;;;4998683;28;20037;-73
2022/05/12 07:55:51;;;;;;;23.73;22.10;;;13.80;99.90;;;;;;5013798;28;20160;-73
2022/05/12 07:58:18;;;;;;;22.83;21.35;;;13.80;99.90;;;;;;5007297;28;20057;-75
2022/05/12 08:00:45;;;;;;;22.90;21.40;;;14.30;99.90;;;;;;5013590;28;20050;-74
2022/05/12 08:03:12;;;;;;;23.83;22.23;;;14.80;99.90;;;;;;5014806;28;20046;-72
2022/05/12 08:05:39;;;;;;;25.02;23.23;;;15.00;99.90;;;;;;5013160;28;20142;-76
2022/05/12 08:08:08;;;;;;;23.70;22.10;;;14.90;99.90;;;;;;4982315;28;20276;-73
2022/05/12 08:10:35;;;;;;;25.70;23.85;;;14.70;99.90;;;;;;5015242;28;20041;-77
2022/05/12 08:13:02;;;;;;;25.52;23.95;;;14.80;99.90;;;;;;4996334;28;20045;-75
2022/05/12 08:15:29;;;;;;;24.60;22.85;;;15.00;99.90;;;;;;4994295;28;20135;-72
2022/05/12 08:17:57;;;;;;;26.33;24.33;;;15.10;99.90;;;;;;4997784;28;20477;-75
2022/05/12 08:20:24;;;;;;;26.80;24.98;;;15.20;99.90;;;;;;4998452;28;20441;-74
2022/05/12 08:22:51;;;;;;;27.67;25.60;;;15.00;99.90;;;;;;4994799;28;20041;-75
2022/05/12 08:25:18;;;;;;;29.83;27.58;;;15.00;99.90;;;;;;4995120;28;20042;-70
2022/05/12 08:27:45;;;;;;;27.63;25.38;;;14.90;99.90;;;;;;4997758;28;20444;-75
2022/05/12 08:30:16;;;;;;;27.05;24.95;;;15.20;99.90;;;;;;4997481;28;20107;-74
2022/05/12 08:32:43;;;;;;;27.15;25.33;;;15.20;99.90;;;;;;4995973;28;20107;-72
2022/05/12 08:35:10;;;;;;;27.92;25.63;;;15.10;99.90;;;;;;4997261;28;20051;-72
2022/05/12 08:37:38;;;;;;;27.38;25.25;;;15.00;99.90;;;;;;5036423;28;20049;-74
2022/05/12 08:40:06;;;;;;;28.30;26.23;;;14.90;99.90;;;;;;5000225;28;20103;-73
2022/05/12 08:42:43;;;;;;;29.20;27.20;;;14.70;99.90;;;;;;5013431;28;20546;-73
2022/05/12 08:45:13;;;;;;;26.60;24.73;;;14.70;99.90;;;;;;4996742;28;20644;-72
2022/05/12 08:47:46;;;;;;;27.38;25.48;;;15.10;99.90;;;;;;4997101;28;20056;-75
2022/05/12 08:50:22;;;;;;;26.80;25.05;;;15.40;99.90;;;;;;4997648;28;20045;-72
2022/05/12 08:52:53;;;;;;;27.08;24.85;;;15.50;99.90;;;;;;4997428;28;20190;-74
2022/05/12 08:55:29;;;;;;;26.65;24.55;;;15.40;99.90;;;;;;4979744;28;20045;-72
2022/05/12 08:58:06;;;;;;;27.00;24.80;;;15.90;99.90;;;;;;4997075;28;20271;-73
2022/05/12 09:01:00;;;;;;;25.60;23.83;;;16.20;99.90;;;;;;5013947;28;20368;-72
2022/05/12 09:03:52;;;;;;;27.80;25.92;;;16.60;99.90;;;;;;5006648;28;20072;-73
2022/05/12 09:06:22;;;;;;;26.45;24.67;;;16.60;99.90;;;;;;5028508;28;20731;-77
2022/05/12 09:08:52;;;;;;;27.23;25.40;;;16.60;99.90;;;;;;5011798;28;20111;-74
2022/05/12 09:11:19;;;;;;;27.42;25.20;;;16.50;99.90;;;;;;5012426;28;20517;-74
2022/05/12 09:13:53;;;;;;;28.33;26.17;;;16.70;99.90;;;;;;4996191;28;20563;-76
2022/05/12 09:16:25;;;;;;;26.10;24.20;;;16.50;99.90;;;;;;4997142;28;20528;-76
2022/05/12 09:18:53;;;;;;;27.40;25.50;;;16.40;99.90;;;;;;4998174;28;20045;-72
2022/05/12 09:21:32;;;;;;;27.33;25.50;;;16.40;99.90;;;;;;5016086;28;20115;-75
2022/05/12 09:24:00;;;;;;;29.38;26.95;;;16.60;99.90;;;;;;4980771;28;20085;-72
2022/05/12 09:26:46;;;;;;;29.70;27.05;;;17.10;99.90;;;;;;5008435;28;20529;-71
2022/05/12 09:29:20;;;;;;;27.60;25.45;;;17.50;99.90;;;;;;4996478;28;20045;-71
2022/05/12 09:31:54;;;;;;;27.50;25.75;;;17.10;99.90;;;;;;4993559;28;20565;-76
2022/05/12 09:34:31;;;;;;;27.58;26.05;;;16.60;99.90;;;;;;5007236;28;20556;-74
2022/05/12 09:37:15;;;;;;;27.38;25.73;;;16.30;99.90;;;;;;4991677;28;20468;-72
2022/05/12 09:39:50;;;;;;;27.13;25.73;;;16.40;99.90;;;;;;4992211;28;20452;-74
2022/05/12 09:42:27;;;;;;;27.35;25.73;;;16.90;99.90;;;;;;5007115;28;20041;-75
2022/05/12 09:44:58;;;;;;;28.02;26.23;;;16.90;99.90;;;;;;4994414;28;20053;-73
2022/05/12 09:47:26;;;;;;;28.00;26.20;;;17.30;99.90;;;;;;4996339;28;20045;-76
2022/05/12 09:50:17;;;;;;;29.25;27.35;;;17.60;99.90;;;;;;5013075;28;20045;-74
2022/05/12 09:52:47;;;;;;;28.23;26.42;;;17.80;99.90;;;;;;4995678;28;20188;-74
2022/05/12 09:55:14;;;;;;;27.33;25.83;;;18.00;99.90;;;;;;5013789;28;20053;-76
2022/05/12 09:57:49;;;;;;;27.73;26.23;;;17.90;99.90;;;;;;4994923;28;20275;-74
2022/05/12 10:00:30;;;;;;;28.42;26.60;;;18.10;99.90;;;;;;5013314;28;20037;-74
2022/05/12 10:09:04;;;;;;;27.70;25.48;;;17.10;99.90;;;;;;5014362;28;20049;-77
2022/05/12 10:11:55;;;;;;;27.75;25.90;;;17.40;99.90;;;;;;4995685;28;20083;-74
2022/05/12 10:14:41;;;;;;;29.52;27.45;;;17.90;99.90;;;;;;4983364;28;20056;-76
2022/05/12 10:17:27;;;;;;;;;;;18.00;99.90;;;;;;5011955;28;20384;-74
2022/05/12 10:19:55;;;;;;;27.33;25.63;;;18.00;99.90;;;;;;4995069;28;20034;-74
2022/05/12 10:22:29;;;;;;;30.85;28.92;;;17.70;99.90;;;;;;4980398;28;20846;-73
2022/05/12 10:25:25;;;;;;;29.42;27.33;;;17.30;99.90;;;;;;5012503;28;20092;-74
2022/05/12 10:28:26;;;;;;;29.25;27.15;;;17.60;99.90;;;;;;4996221;28;20461;-73
2022/05/12 10:31:12;;;;;;;26.75;25.17;;;18.00;99.90;;;;;;4996417;28;20054;-75
2022/05/12 10:33:54;;;;;;;27.45;25.65;;;18.20;99.90;;;;;;4995345;28;20061;-73
2022/05/12 10:36:22;;;;;;;27.55;25.80;;;18.30;99.90;;;;;;5014422;28;20413;-74
2022/05/12 10:38:56;;;;;;;27.90;26.05;;;18.60;99.90;;;;;;5013053;28;20413;-75
2022/05/12 10:41:33;;;;;;;26.70;25.00;;;18.70;99.90;;;;;;5013617;28;20053;-73
2022/05/12 10:44:13;;;;;;;26.35;24.70;;;18.60;99.90;;;;;;4993922;28;20052;-74
2022/05/12 10:46:53;;;;;;;26.75;25.17;;;18.50;99.90;;;;;;4995849;28;20687;-72
2022/05/12 10:49:50;;;;;;;27.27;25.63;;;18.60;99.90;;;;;;5010052;28;20045;-73
2022/05/12 10:52:38;;;;;;;29.15;27.45;;;18.40;99.90;;;;;;5007763;28;20046;-73
2022/05/12 10:55:39;;;;;;;28.95;27.17;;;17.90;99.90;;;;;;5015534;28;20050;-73
2022/05/12 10:58:26;;;;;;;28.65;26.85;;;18.00;99.90;;;;;;5000957;28;20053;-73
2022/05/12 11:01:10;;;;;;;28.05;26.15;;;18.70;99.90;;;;;;5017411;28;20045;-72
2022/05/12 11:03:54;;;;;;;27.58;25.77;;;19.10;99.90;;;;;;4999690;28;20085;-72
2022/05/12 11:06:27;;;;;;;28.40;26.67;;;19.10;99.90;;;;;;5015502;28;20420;-73
2022/05/12 11:09:01;;;;;;;28.25;26.48;;;19.50;99.90;;;;;;5016267;28;20115;-76
2022/05/12 11:11:35;;;;;;;28.52;26.40;;;19.70;99.90;;;;;;5015584;28;20410;-74
2022/05/12 11:14:11;;;;;;;26.60;25.05;;;19.30;99.90;;;;;;5018801;28;20041;-74
2022/05/12 11:16:53;;;;;;;28.17;26.48;;;19.10;99.90;;;;;;5001507;28;20134;-77
2022/05/12 11:19:23;;;;;;;29.00;27.20;;;19.00;99.90;;;;;;4987340;28;20092;-75
2022/05/12 11:22:11;;;;;;;27.55;25.92;;;18.60;99.90;;;;;;5018406;28;20525;-73
2022/05/12 11:24:47;;;;;;;25.77;24.27;;;19.00;99.90;;;;;;4990504;28;20054;-75
2022/05/12 11:27:26;;;;;;;26.15;24.65;;;18.90;99.90;;;;;;5001151;28;20045;-75
2022/05/12 11:30:12;;;;;;;28.00;26.10;;;18.60;99.90;;;;;;5001552;28;20050;-75
2022/05/12 11:33:18;;;;;;;27.17;25.38;;;18.40;99.90;;;;;;5000545;28;20055;-76
2022/05/12 11:35:49;;;;;;;27.25;25.10;;;18.40;99.90;;;;;;4998050;28;20106;-78
2022/05/12 11:38:37;;;;;;;26.83;24.77;;;18.60;99.90;;;;;;5018885;28;20134;-75
2022/05/12 11:41:27;;;;;;;25.33;23.60;;;19.00;99.90;;;;;;4985112;28;20084;-75
2022/05/12 11:44:33;;;;;;;26.30;24.58;;;19.20;99.90;;;;;;5019162;28;20050;-76
2022/05/12 11:47:09;;;;;;;27.65;25.90;;;19.20;99.90;;;;;;4980989;28;20050;-75
2022/05/12 11:50:08;;;;;;;26.98;24.92;;;19.10;99.90;;;;;;5021301;28;20050;-76
2022/05/12 11:53:06;;;;;;;25.92;24.10;;;19.30;99.90;;;;;;5002672;28;20076;-78
2022/05/12 11:56:07;;;;;;;25.38;23.77;;;19.10;99.90;;;;;;4998540;28;20088;-78
2022/05/12 11:58:43;;;;;;;26.77;24.98;;;19.60;99.90;;;;;;5021884;28;20506;-75
2022/05/12 12:01:22;;;;;;;26.67;24.90;;;19.40;99.90;;;;;;5002361;28;20048;-76
2022/05/12 12:04:13;;;;;;;27.00;25.00;;;19.70;99.90;;;;;;5018227;28;20257;-77
2022/05/12 12:06:53;;;;;;;24.67;23.17;;;20.20;99.90;;;;;;5002046;28;20873;-74
2022/05/12 12:09:33;;;;;;;26.08;24.48;;;20.20;99.90;;;;;;5012477;28;20049;-75
2022/05/12 12:12:02;;;;;;;27.30;25.45;;;20.00;99.90;;;;;;4999743;28;20144;-78
2022/05/12 12:14:48;;;;;;;27.52;25.80;;;20.20;99.90;;;;;;4982164;28;20060;-76
2022/05/12 12:17:24;;;;;;;26.77;24.77;;;20.20;99.90;;;;;;5020574;28;20049;-78
2022/05/12 12:19:56;;;;;;;26.98;25.33;;;19.90;99.90;;;;;;5002497;28;20461;-74
2022/05/12 12:22:37;;;;;;;26.20;24.40;;;19.90;99.90;;;;;;4999470;28;20057;-74
2022/05/12 12:25:33;;;;;;;27.10;25.40;;;20.20;99.90;;;;;;5001001;28;20049;-76
2022/05/12 12:28:16;;;;;;;29.10;27.40;;;20.60;99.90;;;;;;4983523;28;20061;-77
2022/05/12 12:31:02;;;;;;;27.98;26.25;;;20.60;99.90;;;;;;4982817;28;20536;-78
2022/05/12 12:33:31;;;;;;;27.23;25.58;;;20.20;99.90;;;;;;5001511;28;20061;-76
2022/05/12 12:36:15;;;;;;;29.35;27.30;;;19.90;99.90;;;;;;5000894;28;20564;-76
2022/05/12 12:38:45;;;;;;;27.90;25.98;;;19.90;99.90;;;;;;4998499;28;20070;-76
2022/05/12 12:41:30;;;;;;;28.63;26.92;;;20.00;99.90;;;;;;4997208;28;20140;-74
2022/05/12 12:44:00;;;;;;;28.55;26.75;;;20.10;99.90;;;;;;4998188;28;20077;-76
2022/05/12 12:46:35;;;;;;;29.40;27.60;;;20.00;99.90;;;;;;5000569;28;20061;-75
2022/05/12 12:49:10;;;;;;;30.55;28.65;;;20.00;99.90;;;;;;5001699;28;20152;-79
2022/05/12 12:51:38;;;;;;;;;;;20.10;99.90;;;;;;5000466;28;20055;-75
2022/05/12 12:57:44;;;;;;;29.75;27.58;;;19.90;99.90;;;;;;5000786;28;20042;-75
2022/05/12 13:00:27;;;;;;;29.85;27.75;;;20.10;99.90;;;;;;4999297;28;20045;-76
2022/05/12 13:03:01;;;;;;;27.40;25.40;;;19.90;99.90;;;;;;5000032;28;20421;-77
2022/05/12 13:05:29;;;;;;;29.40;26.83;;;20.20;99.90;;;;;;5019150;28;20128;-79
2022/05/12 13:08:04;;;;;;;30.17;28.10;;;20.10;99.90;;;;;;4998965;28;20151;-79
2022/05/12 13:10:41;;;;;;;30.25;28.40;;;19.80;99.90;;;;;;5000183;28;20520;-76
2022/05/12 13:13:08;;;;;;;30.30;28.17;;;19.80;99.90;;;;;;5000216;28;20699;-74
2022/05/12 13:15:40;;;;;;;32.50;30.60;;;19.50;99.90;;;;;;4999547;28;20460;-75